Time,TemperatureF,DewpointF,PressureIn,WindDirection,WindDirectionDegrees,WindSpeedMPH,WindSpeedGustMPH,Humidity,HourlyPrecipIn,Conditions,Clouds,dailyrainin,SoftwareType,DateUTC
2015-08-31 00:04:00,67.0,50.3,29.94,North,350,0.0,0.0,55,0.00,CLR,,0.00,WeatherDisplay:10.37,2015-08-31 07:04:00,
2015-08-31 00:09:00,66.8,50.6,29.94,North,350,0.0,4.0,56,0.00,CLR,,0.00,WeatherDisplay:10.37,2015-08-31 07:09:00,
2015-08-31 00:14:00,66.7,50.5,29.94,NNW,334,0.0,5.0,56,0.00,CLR,,0.00,WeatherDisplay:10.37,2015-08-31 07:14:00,
2015-08-31 00:19:00,66.6,50.4,29.94,NNW,327,0.0,0.0,56,0.00,CLR,,0.00,WeatherDisplay:10.37,2015-08-31 07:19:00,
2015-08-31 00:24:00,66.5,50.8,29.94,NNW,337,0.0,1.0,57,0.00,CLR,,0.00,WeatherDisplay:10.37,2015-08-31 07:24:00,
2015-08-31 00:29:00,66.3,50.1,29.94,NNE,31,0.0,0.0,56,0.00,CLR,,0.00,WeatherDisplay:10.37,2015-08-31 07:29:00,
2015-08-31 00:34:00,66.2,50.5,29.94,NNE,33,0.0,0.0,57,0.00,CLR,,0.00,WeatherDisplay:10.37,2015-08-31 07:34:00,
2015-08-31 00:39:00,66.1,51.4,29.93,NNE,33,0.0,1.0,59,0.00,CLR,,0.00,WeatherDisplay:10.37,2015-08-31 07:39:00,
2015-08-31 00:49:00,65.8,53.7,29.93,ENE,57,0.0,0.0,65,0.00,CLR,,0.00,WeatherDisplay:10.37,2015-08-31 07:49:00,
2015-08-31 00:54:00,65.7,54.0,29.93,ENE,57,0.0,0.0,66,0.00,CLR,,0.00,WeatherDisplay:10.37,2015-08-31 07:54:00,
2015-08-31 00:59:00,65.5,53.8,29.94,ENE,57,0.0,0.0,66,0.00,CLR,,0.00,WeatherDisplay:10.37,2015-08-31 07:59:00,
2015-08-31 01:04:00,65.3,53.7,29.93,ENE,57,0.0,0.0,66,0.00,CLR,,0.00,WeatherDisplay:10.37,2015-08-31 08:04:00,
2015-08-31 01:09:00,65.2,53.5,29.94,ENE,57,0.0,0.0,66,0.00,CLR,,0.00,WeatherDisplay:10.37,2015-08-31 08:09:00,
2015-08-31 01:14:00,65.0,54.2,29.94,ENE,57,0.0,0.0,68,0.00,CLR,,0.00,WeatherDisplay:10.37,2015-08-31 08:14:00,
2015-08-31 01:19:00,64.9,54.5,29.94,ENE,57,0.0,0.0,69,0.00,CLR,,0.00,WeatherDisplay:10.37,2015-08-31 08:19:00,
2015-08-31 01:24:00,64.8,54.4,29.93,ENE,57,0.0,0.0,69,0.00,CLR,,0.00,WeatherDisplay:10.37,2015-08-31 08:24:00,
2015-08-31 01:30:00,64.7,54.7,29.93,ENE,57,0.0,0.0,70,0.00,CLR,,0.00,WeatherDisplay:10.37,2015-08-31 08:30:00,
2015-08-31 01:39:00,64.5,54.9,29.93,ENE,57,0.0,0.0,71,0.00,CLR,,0.00,WeatherDisplay:10.37,2015-08-31 08:39:00,
2015-08-31 01:44:00,64.3,55.5,29.93,ENE,57,0.0,0.0,73,0.00,CLR,,0.00,WeatherDisplay:10.37,2015-08-31 08:44:00,
2015-08-31 01:49:00,64.3,55.0,29.93,ENE,57,0.0,0.0,72,0.00,CLR,,0.00,WeatherDisplay:10.37,2015-08-31 08:49:00,
2015-08-31 01:59:00,63.7,53.8,29.93,ENE,57,0.0,0.0,70,0.00,CLR,,0.00,WeatherDisplay:10.37,2015-08-31 08:59:00,
2015-08-31 02:04:00,63.4,53.0,29.93,ENE,57,0.0,0.0,69,0.00,CLR,,0.00,WeatherDisplay:10.37,2015-08-31 09:04:00,
2015-08-31 02:09:00,63.1,52.3,29.93,ENE,57,0.0,0.0,68,0.00,CLR,,0.00,WeatherDisplay:10.37,2015-08-31 09:09:00,
2015-08-31 02:19:00,62.4,52.1,29.92,ENE,57,0.0,0.0,69,0.00,CLR,,0.00,WeatherDisplay:10.37,2015-08-31 09:19:00,
2015-08-31 02:29:00,61.8,51.5,29.92,ENE,57,0.0,0.0,69,0.00,CLR,,0.00,WeatherDisplay:10.37,2015-08-31 09:29:00,
2015-08-31 02:34:00,61.5,51.3,29.92,ENE,57,0.0,0.0,69,0.00,CLR,,0.00,WeatherDisplay:10.37,2015-08-31 09:34:00,
2015-08-31 02:39:00,61.3,51.4,29.92,ENE,57,0.0,0.0,70,0.00,CLR,,0.00,WeatherDisplay:10.37,2015-08-31 09:39:00,
2015-08-31 02:49:00,60.8,51.0,29.92,ENE,57,0.0,0.0,70,0.00,CLR,,0.00,WeatherDisplay:10.37,2015-08-31 09:49:00,
2015-08-31 02:59:00,60.3,50.5,29.92,ENE,57,0.0,0.0,70,0.00,CLR,,0.00,WeatherDisplay:10.37,2015-08-31 09:59:00,
2015-08-31 03:04:00,60.1,50.3,29.92,ENE,57,0.0,0.0,70,0.00,CLR,,0.00,WeatherDisplay:10.37,2015-08-31 10:04:00,
2015-08-31 03:09:00,59.9,50.5,29.92,ENE,57,0.0,0.0,71,0.00,CLR,,0.00,WeatherDisplay:10.37,2015-08-31 10:09:00,
2015-08-31 03:14:00,59.7,50.3,29.92,ENE,57,0.0,0.0,71,0.00,CLR,,0.00,WeatherDisplay:10.37,2015-08-31 10:14:00,
2015-08-31 03:19:00,59.6,50.2,29.92,ENE,57,0.0,0.0,71,0.00,CLR,,0.00,WeatherDisplay:10.37,2015-08-31 10:19:00,
2015-08-31 03:24:00,59.5,50.1,29.92,ENE,57,0.0,0.0,71,0.00,CLR,,0.00,WeatherDisplay:10.37,2015-08-31 10:24:00,
2015-08-31 03:29:00,59.3,50.3,29.92,ENE,57,0.0,0.0,72,0.00,CLR,,0.00,WeatherDisplay:10.37,2015-08-31 10:29:00,
2015-08-31 03:34:00,59.2,50.2,29.92,ENE,57,0.0,0.0,72,0.00,CLR,,0.00,WeatherDisplay:10.37,2015-08-31 10:34:00,
2015-08-31 03:40:00,59.1,50.1,29.92,ENE,57,0.0,0.0,72,0.00,CLR,,0.00,WeatherDisplay:10.37,2015-08-31 10:40:00,
2015-08-31 03:49:00,58.9,49.9,29.91,ENE,57,0.0,0.0,72,0.00,CLR,,0.00,WeatherDisplay:10.37,2015-08-31 10:49:00,
2015-08-31 03:54:00,58.8,50.1,29.92,ENE,57,0.0,0.0,73,0.00,CLR,,0.00,WeatherDisplay:10.37,2015-08-31 10:54:00,
2015-08-31 03:59:00,58.6,49.6,29.92,ENE,57,0.0,0.0,72,0.00,CLR,,0.00,WeatherDisplay:10.37,2015-08-31 10:59:00,
2015-08-31 04:04:00,58.5,49.9,29.92,ENE,57,0.0,0.0,73,0.00,CLR,,0.00,WeatherDisplay:10.37,2015-08-31 11:04:00,
2015-08-31 04:09:00,58.4,49.8,29.92,ENE,57,0.0,0.0,73,0.00,CLR,,0.00,WeatherDisplay:10.37,2015-08-31 11:09:00,
2015-08-31 04:20:00,58.2,49.6,29.92,ENE,57,0.0,0.0,73,0.00,CLR,,0.00,WeatherDisplay:10.37,2015-08-31 11:20:00,
2015-08-31 04:30:00,58.0,49.8,29.92,ENE,57,0.0,0.0,74,0.00,CLR,,0.00,WeatherDisplay:10.37,2015-08-31 11:30:00,
2015-08-31 04:40:00,57.9,49.6,29.92,ENE,57,0.0,0.0,74,0.00,CLR,,0.00,WeatherDisplay:10.37,2015-08-31 11:40:00,
2015-08-31 04:50:00,57.6,49.4,29.91,ENE,57,0.0,0.0,74,0.00,CLR,,0.00,WeatherDisplay:10.37,2015-08-31 11:50:00,
2015-08-31 04:59:00,57.5,49.6,29.91,ENE,57,0.0,0.0,75,0.00,CLR,,0.00,WeatherDisplay:10.37,2015-08-31 11:59:00,
2015-08-31 05:04:00,57.4,49.5,29.91,ENE,57,0.0,0.0,75,0.00,CLR,,0.00,WeatherDisplay:10.37,2015-08-31 12:04:00,
2015-08-31 05:10:00,57.3,49.4,29.91,ENE,57,0.0,0.0,75,0.00,CLR,,0.00,WeatherDisplay:10.37,2015-08-31 12:10:00,
2015-08-31 05:20:00,57.1,49.3,29.91,ENE,57,0.0,0.0,75,0.00,CLR,,0.00,WeatherDisplay:10.37,2015-08-31 12:20:00,
2015-08-31 05:30:00,57.0,49.2,29.91,ENE,57,0.0,0.0,75,0.00,CLR,,0.00,WeatherDisplay:10.37,2015-08-31 12:30:00,
2015-08-31 05:39:00,56.8,49.3,29.91,ENE,57,0.0,0.0,76,0.00,CLR,,0.00,WeatherDisplay:10.37,2015-08-31 12:39:00,
2015-08-31 05:44:00,56.8,49.3,29.91,ENE,57,0.0,0.0,76,0.00,CLR,,0.00,WeatherDisplay:10.37,2015-08-31 12:44:00,
2015-08-31 05:50:00,56.7,49.2,29.91,ENE,57,0.0,0.0,76,0.00,CLR,,0.00,WeatherDisplay:10.37,2015-08-31 12:50:00,
2015-08-31 05:59:00,56.6,49.5,29.91,ENE,57,0.0,0.0,77,0.00,CLR,,0.00,WeatherDisplay:10.37,2015-08-31 12:59:00,
2015-08-31 06:04:00,56.6,49.5,29.91,ENE,57,0.0,0.0,77,0.00,CLR,,0.00,WeatherDisplay:10.37,2015-08-31 13:04:00,
2015-08-31 06:10:00,56.6,49.1,29.91,ENE,57,0.0,0.0,76,0.00,CLR,,0.00,WeatherDisplay:10.37,2015-08-31 13:10:00,
2015-08-31 06:19:00,56.6,49.5,29.91,NE,42,0.0,0.0,77,0.00,CLR,,0.00,WeatherDisplay:10.37,2015-08-31 13:19:00,
2015-08-31 06:24:00,56.6,49.5,29.91,NE,40,0.0,0.0,77,0.00,CLR,,0.00,WeatherDisplay:10.37,2015-08-31 13:24:00,
2015-08-31 06:29:00,56.5,49.4,29.91,NE,40,0.0,0.0,77,0.00,CLR,,0.00,WeatherDisplay:10.37,2015-08-31 13:29:00,
2015-08-31 06:40:00,56.5,49.4,29.91,NE,40,0.0,0.0,77,0.00,CLR,,0.00,WeatherDisplay:10.37,2015-08-31 13:40:00,
2015-08-31 06:49:00,56.5,49.4,29.91,NE,40,0.0,0.0,77,0.00,CLR,,0.00,WeatherDisplay:10.37,2015-08-31 13:49:00,
2015-08-31 06:54:00,56.4,49.3,29.91,NE,40,0.0,0.0,77,0.00,CLR,,0.00,WeatherDisplay:10.37,2015-08-31 13:54:00,
2015-08-31 06:59:00,56.4,49.3,29.92,NE,40,0.0,0.0,77,0.00,CLR,,0.00,WeatherDisplay:10.37,2015-08-31 13:59:00,
2015-08-31 07:04:00,56.4,49.3,29.92,NE,36,0.0,0.0,77,0.00,OVC,,0.00,WeatherDisplay:10.37,2015-08-31 14:04:00,
2015-08-31 07:10:00,56.4,49.3,29.92,NNE,31,0.0,0.0,77,0.00,OVC,,0.00,WeatherDisplay:10.37,2015-08-31 14:10:00,
2015-08-31 07:19:00,56.4,49.6,29.92,NNE,29,0.0,0.0,78,0.00,OVC,,0.00,WeatherDisplay:10.37,2015-08-31 14:19:00,
2015-08-31 07:24:00,56.5,49.7,29.92,NNE,29,0.0,0.0,78,0.00,OVC,,0.00,WeatherDisplay:10.37,2015-08-31 14:24:00,
2015-08-31 07:29:00,56.6,49.8,29.92,NNE,29,0.0,0.0,78,0.00,OVC,,0.00,WeatherDisplay:10.37,2015-08-31 14:29:00,
2015-08-31 07:34:00,56.7,49.9,29.92,NNE,29,0.0,0.0,78,0.00,OVC,,0.00,WeatherDisplay:10.37,2015-08-31 14:34:00,
2015-08-31 07:40:00,56.9,50.1,29.92,NNE,29,0.0,0.0,78,0.00,OVC,,0.00,WeatherDisplay:10.37,2015-08-31 14:40:00,
2015-08-31 07:50:00,57.2,50.4,29.93,North,11,0.0,0.0,78,0.00,OVC,,0.00,WeatherDisplay:10.37,2015-08-31 14:50:00,
2015-08-31 07:59:00,57.7,50.5,29.93,North,11,0.0,0.0,77,0.00,OVC,,0.00,WeatherDisplay:10.37,2015-08-31 14:59:00,
2015-08-31 08:04:00,57.9,50.8,29.93,North,11,0.0,0.0,77,0.00,OVC,,0.00,WeatherDisplay:10.37,2015-08-31 15:04:00,
2015-08-31 08:10:00,58.3,51.1,29.93,North,11,0.0,0.0,77,0.00,OVC,,0.00,WeatherDisplay:10.37,2015-08-31 15:10:00,
2015-08-31 08:19:00,59.3,52.1,29.93,North,11,0.0,0.0,77,0.00,OVC,,0.00,WeatherDisplay:10.37,2015-08-31 15:19:00,
2015-08-31 08:24:00,59.9,52.7,29.93,NNE,12,0.0,0.0,77,0.00,OVC,,0.00,WeatherDisplay:10.37,2015-08-31 15:24:00,
2015-08-31 08:30:00,60.7,53.4,29.93,NNE,13,0.0,0.0,77,0.00,OVC,,0.00,WeatherDisplay:10.37,2015-08-31 15:30:00,
2015-08-31 08:40:00,62.2,54.6,29.93,NNE,13,0.0,0.0,76,0.00,OVC,,0.00,WeatherDisplay:10.37,2015-08-31 15:40:00,
2015-08-31 08:50:00,63.6,55.2,29.93,NNE,21,0.0,4.0,74,0.00,OVC,,0.00,WeatherDisplay:10.37,2015-08-31 15:50:00,
2015-08-31 08:59:00,65.1,55.8,29.93,East,96,0.0,1.0,72,0.00,OVC,,0.00,WeatherDisplay:10.37,2015-08-31 15:59:00,
2015-08-31 09:04:00,65.7,56.1,29.93,East,97,1.0,3.0,71,0.00,OVC,,0.00,WeatherDisplay:10.37,2015-08-31 16:04:00,
2015-08-31 09:10:00,66.4,56.7,29.93,East,99,0.0,0.0,71,0.00,OVC,,0.00,WeatherDisplay:10.37,2015-08-31 16:10:00,
2015-08-31 09:19:00,67.5,56.9,29.93,South,171,1.0,6.0,69,0.00,OVC,,0.00,WeatherDisplay:10.37,2015-08-31 16:19:00,
2015-08-31 09:24:00,68.0,57.0,29.93,South,176,3.0,7.0,68,0.00,OVC,,0.00,WeatherDisplay:10.37,2015-08-31 16:24:00,
2015-08-31 09:30:00,68.3,57.3,29.94,South,184,1.0,6.0,68,0.00,OVC,,0.00,WeatherDisplay:10.37,2015-08-31 16:30:00,
2015-08-31 09:50:00,69.5,57.2,29.94,SSE,167,3.0,6.0,65,0.00,OVC,,0.00,WeatherDisplay:10.37,2015-08-31 16:50:00,
2015-08-31 09:59:00,70.0,57.7,29.94,SSW,207,0.0,4.0,65,0.00,OVC,,0.00,WeatherDisplay:10.37,2015-08-31 16:59:00,
2015-08-31 10:05:00,70.3,57.5,29.94,South,185,1.0,6.0,64,0.00,OVC,,0.00,WeatherDisplay:10.37,2015-08-31 17:05:00,
2015-08-31 10:10:00,70.5,57.3,29.94,SSE,164,1.0,7.0,63,0.00,OVC,,0.00,WeatherDisplay:10.37,2015-08-31 17:10:00,
2015-08-31 10:20:00,71.0,57.8,29.94,SSW,202,1.0,5.0,63,0.00,OVC,,0.00,WeatherDisplay:10.37,2015-08-31 17:20:00,
2015-08-31 10:30:00,71.5,57.8,29.94,SSE,166,2.0,6.0,62,0.00,OVC,,0.00,WeatherDisplay:10.37,2015-08-31 17:30:00,
2015-08-31 10:40:00,71.6,57.9,29.94,SSE,163,1.0,7.0,62,0.00,OVC,,0.00,WeatherDisplay:10.37,2015-08-31 17:40:00,
2015-08-31 10:50:00,71.7,58.0,29.94,SSW,206,0.0,4.0,62,0.00,OVC,,0.00,WeatherDisplay:10.37,2015-08-31 17:50:00,
2015-08-31 10:59:00,71.6,57.4,29.94,SSW,200,1.0,10.0,61,0.00,OVC,,0.00,WeatherDisplay:10.37,2015-08-31 17:59:00,
2015-08-31 11:04:00,71.7,57.5,29.94,SSW,206,1.0,6.0,61,0.00,FEW,,0.00,WeatherDisplay:10.37,2015-08-31 18:04:00,
2015-08-31 11:10:00,71.7,57.5,29.94,SSW,211,0.0,4.0,61,0.00,FEW,,0.00,WeatherDisplay:10.37,2015-08-31 18:10:00,
2015-08-31 11:30:00,72.3,57.2,29.94,South,172,1.0,5.0,59,0.00,FEW,,0.00,WeatherDisplay:10.37,2015-08-31 18:30:00,
2015-08-31 11:40:00,72.2,57.5,29.94,South,182,3.0,6.0,60,0.00,FEW,,0.00,WeatherDisplay:10.37,2015-08-31 18:40:00,
2015-08-31 11:50:00,72.3,57.7,29.93,SSE,168,2.0,7.0,60,0.00,FEW,,0.00,WeatherDisplay:10.37,2015-08-31 18:50:00,
2015-08-31 11:54:00,72.4,57.7,29.93,South,169,1.0,7.0,60,0.00,FEW,,0.00,WeatherDisplay:10.37,2015-08-31 18:54:00,
2015-08-31 11:59:00,72.5,57.8,29.93,SSE,163,1.0,9.0,60,0.00,FEW,,0.00,WeatherDisplay:10.37,2015-08-31 18:59:00,
2015-08-31 12:04:00,72.6,57.9,29.93,SSE,157,1.0,8.0,60,0.00,CLR,,0.00,WeatherDisplay:10.37,2015-08-31 19:04:00,
2015-08-31 12:10:00,72.8,58.1,29.93,South,171,5.0,8.0,60,0.00,CLR,,0.00,WeatherDisplay:10.37,2015-08-31 19:10:00,
2015-08-31 12:20:00,73.4,58.2,29.93,SSW,201,1.0,9.0,59,0.00,CLR,,0.00,WeatherDisplay:10.37,2015-08-31 19:20:00,
2015-08-31 12:30:00,74.0,58.3,29.92,SW,215,5.0,10.0,58,0.00,CLR,,0.00,WeatherDisplay:10.37,2015-08-31 19:30:00,
2015-08-31 12:40:00,74.6,58.4,29.92,SSW,204,5.0,9.0,57,0.00,CLR,,0.00,WeatherDisplay:10.37,2015-08-31 19:40:00,
2015-08-31 12:50:00,75.1,57.8,29.92,SSW,204,7.0,12.0,55,0.00,CLR,,0.00,WeatherDisplay:10.37,2015-08-31 19:50:00,
2015-08-31 12:59:00,75.8,58.0,29.91,SSW,208,3.0,8.0,54,0.00,CLR,,0.00,WeatherDisplay:10.37,2015-08-31 19:59:00,
2015-08-31 13:04:00,76.2,58.4,29.91,SSW,202,5.0,9.0,54,0.00,CLR,,0.00,WeatherDisplay:10.37,2015-08-31 20:04:00,
2015-08-31 13:10:00,76.7,58.2,29.91,SSW,205,6.0,10.0,53,0.00,CLR,,0.00,WeatherDisplay:10.37,2015-08-31 20:10:00,
2015-08-31 13:20:00,77.3,57.8,29.90,SW,224,6.0,10.0,51,0.00,CLR,,0.00,WeatherDisplay:10.37,2015-08-31 20:20:00,
2015-08-31 13:30:00,77.9,57.8,29.90,SSW,213,3.0,10.0,50,0.00,CLR,,0.00,WeatherDisplay:10.37,2015-08-31 20:30:00,
2015-08-31 13:40:00,78.4,58.2,29.89,SW,215,5.0,12.0,50,0.00,CLR,,0.00,WeatherDisplay:10.37,2015-08-31 20:40:00,
2015-08-31 13:50:00,79.0,58.2,29.89,SSW,209,5.0,12.0,49,0.00,CLR,,0.00,WeatherDisplay:10.37,2015-08-31 20:50:00,
2015-08-31 13:54:00,79.2,57.8,29.89,SSW,203,6.0,12.0,48,0.00,CLR,,0.00,WeatherDisplay:10.37,2015-08-31 20:54:00,
2015-08-31 13:59:00,79.2,57.8,29.89,SSW,195,2.0,10.0,48,0.00,CLR,,0.00,WeatherDisplay:10.37,2015-08-31 20:59:00,
2015-08-31 14:04:00,79.4,58.0,29.89,SSW,197,3.0,12.0,48,0.00,CLR,,0.00,WeatherDisplay:10.37,2015-08-31 21:04:00,
2015-08-31 14:10:00,79.6,58.2,29.89,SSW,200,5.0,9.0,48,0.00,CLR,,0.00,WeatherDisplay:10.37,2015-08-31 21:10:00,
2015-08-31 14:14:00,79.8,58.9,29.89,SSW,201,5.0,9.0,49,0.00,CLR,,0.00,WeatherDisplay:10.37,2015-08-31 21:14:00,
2015-08-31 14:20:00,80.1,58.6,29.89,SSW,205,5.0,9.0,48,0.00,CLR,,0.00,WeatherDisplay:10.37,2015-08-31 21:20:00,
2015-08-31 14:30:00,80.2,58.7,29.89,SSW,205,5.0,12.0,48,0.00,CLR,,0.00,WeatherDisplay:10.37,2015-08-31 21:30:00,
2015-08-31 14:40:00,80.2,58.7,29.88,SSW,208,5.0,9.0,48,0.00,CLR,,0.00,WeatherDisplay:10.37,2015-08-31 21:40:00,
2015-08-31 14:50:00,80.1,58.6,29.88,South,182,2.0,9.0,48,0.00,CLR,,0.00,WeatherDisplay:10.37,2015-08-31 21:50:00,
2015-08-31 14:59:00,80.3,58.8,29.88,SSE,155,1.0,7.0,48,0.00,CLR,,0.00,WeatherDisplay:10.37,2015-08-31 21:59:00,
2015-08-31 15:04:00,80.4,58.9,29.88,SSE,152,1.0,8.0,48,0.00,CLR,,0.00,WeatherDisplay:10.37,2015-08-31 22:04:00,
2015-08-31 15:10:00,80.6,59.1,29.88,SE,132,2.0,7.0,48,0.00,CLR,,0.00,WeatherDisplay:10.37,2015-08-31 22:10:00,
2015-08-31 15:20:00,80.8,58.7,29.87,ESE,119,2.0,6.0,47,0.00,CLR,,0.00,WeatherDisplay:10.37,2015-08-31 22:20:00,
2015-08-31 15:24:00,80.8,58.7,29.87,ESE,112,1.0,5.0,47,0.00,CLR,,0.00,WeatherDisplay:10.37,2015-08-31 22:24:00,
2015-08-31 15:30:00,80.8,58.7,29.87,ESE,116,1.0,8.0,47,0.00,CLR,,0.00,WeatherDisplay:10.37,2015-08-31 22:30:00,
2015-08-31 15:40:00,80.9,58.2,29.87,East,101,3.0,10.0,46,0.00,CLR,,0.00,WeatherDisplay:10.37,2015-08-31 22:40:00,
2015-08-31 15:44:00,80.9,57.0,29.87,East,87,6.0,10.0,44,0.00,CLR,,0.00,WeatherDisplay:10.37,2015-08-31 22:44:00,
2015-08-31 15:50:00,80.9,55.6,29.87,East,80,6.0,12.0,42,0.00,CLR,,0.00,WeatherDisplay:10.37,2015-08-31 22:50:00,